Time;durP1;ratioP1;P1;durP2;ratioP2;P2;SDS_P1;SDS_P2;PMS_P1;PMS_P2;Temp;Humidity;BMP_temperature;BMP_pressure;BME280_temperature;BME280_humidity;BME280_pressure;Samples;Min_cycle;Max_cycle;Signal;HPM_P1;HPM_P2
2022/09/30 00:01:38;;;;;;;8.85;3.55;;;8.80;99.90;;;;;;5065530;28;20397;-68
2022/09/30 00:04:05;;;;;;;6.63;3.10;;;8.80;99.90;;;;;;5063206;28;20109;-69
2022/09/30 00:06:34;;;;;;;6.68;3.35;;;8.80;99.90;;;;;;5064402;28;20067;-69
2022/09/30 00:09:01;;;;;;;6.93;3.03;;;8.80;99.90;;;;;;5064280;28;20489;-69
2022/09/30 00:11:32;;;;;;;6.57;3.30;;;8.80;99.90;;;;;;5063472;28;20079;-69
2022/09/30 00:14:00;;;;;;;6.22;3.17;;;8.80;99.90;;;;;;5063549;28;20444;-68
2022/09/30 00:16:30;;;;;;;4.72;2.97;;;8.70;99.90;;;;;;5045631;28;20611;-68
2022/09/30 00:18:57;;;;;;;5.75;3.33;;;8.70;99.90;;;;;;5064110;28;20399;-69
2022/09/30 00:21:24;;;;;;;6.40;3.20;;;8.70;99.90;;;;;;5062429;28;20052;-68
2022/09/30 00:23:50;;;;;;;8.40;3.38;;;8.70;99.90;;;;;;5064636;28;20374;-68
2022/09/30 00:26:19;;;;;;;6.47;3.13;;;8.60;99.90;;;;;;5065505;28;20040;-68
2022/09/30 00:28:48;;;;;;;5.35;3.33;;;8.60;99.90;;;;;;5044140;28;20752;-68
2022/09/30 00:31:16;;;;;;;7.95;3.38;;;8.60;99.90;;;;;;5063368;28;20589;-68
2022/09/30 00:33:43;;;;;;;5.32;2.90;;;8.60;99.90;;;;;;5058175;28;20048;-68
2022/09/30 00:36:09;;;;;;;5.55;2.88;;;8.70;99.90;;;;;;5061808;28;20044;-68
2022/09/30 00:38:35;;;;;;;5.80;3.35;;;8.50;99.90;;;;;;5063376;28;20056;-69
2022/09/30 00:41:02;;;;;;;6.60;2.85;;;8.50;99.90;;;;;;5064045;28;20044;-68
2022/09/30 00:43:40;;;;;;;6.32;3.03;;;8.60;99.90;;;;;;5047217;28;20036;-68
2022/09/30 00:46:25;;;;;;;7.95;3.05;;;8.50;99.90;;;;;;5047737;28;20072;-68
2022/09/30 00:48:53;;;;;;;7.50;3.20;;;8.40;99.90;;;;;;5058432;28;20469;-68
2022/09/30 00:51:42;;;;;;;7.00;3.05;;;8.40;99.90;;;;;;5047896;28;20594;-68
2022/09/30 00:54:13;;;;;;;5.18;2.75;;;8.50;99.90;;;;;;5044362;28;20041;-68
2022/09/30 00:56:44;;;;;;;6.00;2.90;;;8.30;99.90;;;;;;5068263;28;20063;-68
2022/09/30 00:59:15;;;;;;;6.60;2.92;;;8.20;99.90;;;;;;5063367;28;20199;-68
2022/09/30 01:01:41;;;;;;;6.35;2.60;;;8.20;99.90;;;;;;5061629;28;20444;-68
2022/09/30 01:04:29;;;;;;;5.90;2.65;;;8.20;99.90;;;;;;5045591;28;20065;-69
2022/09/30 01:07:00;;;;;;;5.65;3.00;;;8.20;99.90;;;;;;5051600;28;20056;-69
2022/09/30 01:09:26;;;;;;;10.07;3.08;;;8.20;99.90;;;;;;5063943;28;20056;-68
2022/09/30 01:11:52;;;;;;;5.50;2.75;;;8.10;99.90;;;;;;5066737;28;20101;-69
2022/09/30 01:14:22;;;;;;;5.35;2.72;;;8.10;99.90;;;;;;5066811;28;20472;-68
2022/09/30 01:17:19;;;;;;;8.23;2.95;;;8.10;99.90;;;;;;5049757;28;20090;-68
2022/09/30 01:20:02;;;;;;;5.90;2.88;;;8.00;99.90;;;;;;5065629;28;20120;-68
2022/09/30 01:22:46;;;;;;;5.40;2.65;;;8.00;99.90;;;;;;5066542;28;20056;-69
2022/09/30 01:25:32;;;;;;;4.82;2.60;;;8.00;99.90;;;;;;5067372;28;20059;-69
2022/09/30 01:28:23;;;;;;;4.70;2.63;;;7.90;99.90;;;;;;5067251;28;20032;-68
2022/09/30 01:31:00;;;;;;;4.72;2.60;;;7.90;99.90;;;;;;5065520;28;21453;-68
2022/09/30 01:33:56;;;;;;;5.18;2.95;;;7.90;99.90;;;;;;5049825;28;20506;-69
2022/09/30 01:36:31;;;;;;;5.40;2.63;;;7.80;99.90;;;;;;5067288;28;20393;-69
2022/09/30 01:39:37;;;;;;;5.43;2.60;;;7.80;99.90;;;;;;5067156;28;20044;-69
2022/09/30 01:42:09;;;;;;;4.85;2.60;;;7.80;99.90;;;;;;5019183;28;20110;-68
2022/09/30 01:44:51;;;;;;;5.80;2.95;;;7.80;99.90;;;;;;5042091;28;20033;-68
2022/09/30 01:47:23;;;;;;;10.45;2.90;;;7.80;99.90;;;;;;5033320;28;20468;-68
2022/09/30 01:49:52;;;;;;;5.95;2.40;;;7.70;99.90;;;;;;5065011;28;20477;-68
2022/09/30 01:52:36;;;;;;;4.60;2.55;;;7.70;99.90;;;;;;5049655;28;20113;-69
2022/09/30 01:55:23;;;;;;;5.78;2.83;;;7.70;99.90;;;;;;5060023;28;20409;-68
2022/09/30 01:58:06;;;;;;;4.63;2.40;;;7.70;99.90;;;;;;5066429;28;20118;-68
2022/09/30 02:00:36;;;;;;;4.88;2.50;;;7.70;99.90;;;;;;5065689;28;20044;-68
2022/09/30 02:03:10;;;;;;;5.15;2.47;;;7.70;99.90;;;;;;5066791;28;20418;-68
2022/09/30 02:05:39;;;;;;;6.32;2.75;;;7.60;99.90;;;;;;5065309;28;20090;-68
2022/09/30 02:08:16;;;;;;;5.60;2.50;;;7.90;99.90;;;;;;5063779;28;20040;-69
2022/09/30 02:10:55;;;;;;;5.05;2.55;;;7.60;99.90;;;;;;5066356;28;20083;-69
2022/09/30 02:13:29;;;;;;;5.07;2.33;;;7.50;99.90;;;;;;5065907;28;20124;-68
2022/09/30 02:15:59;;;;;;;5.03;2.70;;;7.50;99.90;;;;;;5065151;28;20051;-68
2022/09/30 02:18:30;;;;;;;4.60;2.40;;;7.50;99.90;;;;;;5064523;28;20044;-68
2022/09/30 02:21:00;;;;;;;6.80;2.38;;;7.40;99.90;;;;;;5067045;28;20098;-69
2022/09/30 02:23:29;;;;;;;8.45;2.40;;;8.00;99.90;;;;;;5064745;28;20098;-69
2022/09/30 02:26:23;;;;;;;4.55;2.70;;;7.40;99.90;;;;;;5064628;28;20059;-69
2022/09/30 02:29:15;;;;;;;6.20;2.25;;;7.30;99.90;;;;;;5042865;28;20066;-69
2022/09/30 02:31:45;;;;;;;4.13;2.40;;;7.30;99.90;;;;;;5080538;28;20071;-68
2022/09/30 02:34:18;;;;;;;4.05;2.13;;;7.30;99.90;;;;;;5064124;28;20037;-70
2022/09/30 02:36:52;;;;;;;3.75;2.00;;;7.30;99.90;;;;;;5067444;28;20366;-69
2022/09/30 02:40:04;;;;;;;4.43;2.10;;;7.20;99.90;;;;;;5048201;28;20088;-68
2022/09/30 02:42:32;;;;;;;4.43;2.08;;;7.20;99.90;;;;;;5093377;28;20070;-69
2022/09/30 02:45:07;;;;;;;3.80;2.00;;;7.20;99.90;;;;;;5065217;28;20033;-69
2022/09/30 02:48:18;;;;;;;4.70;2.40;;;7.20;99.90;;;;;;5065267;28;20401;-68
2022/09/30 02:51:00;;;;;;;4.82;2.30;;;7.20;99.90;;;;;;5064035;28;20092;-68
2022/09/30 02:53:54;;;;;;;4.30;2.40;;;7.10;99.90;;;;;;5056420;28;20354;-68
2022/09/30 02:56:33;;;;;;;4.43;2.22;;;7.20;99.90;;;;;;5052285;28;20047;-68
2022/09/30 02:58:59;;;;;;;3.80;2.20;;;7.40;99.90;;;;;;5061719;28;20075;-69
2022/09/30 03:01:24;;;;;;;5.55;2.22;;;7.10;99.90;;;;;;5064520;28;20152;-68
2022/09/30 03:04:05;;;;;;;4.40;2.30;;;7.10;99.90;;;;;;5065189;28;20043;-69
2022/09/30 03:06:33;;;;;;;4.60;2.30;;;7.10;99.90;;;;;;5061722;28;20049;-68
2022/09/30 03:08:59;;;;;;;12.57;2.60;;;7.10;99.90;;;;;;5051647;28;20143;-68
2022/09/30 03:11:27;;;;;;;4.95;2.50;;;7.20;99.90;;;;;;5060319;28;20135;-68
2022/09/30 03:14:27;;;;;;;5.95;2.33;;;7.50;99.90;;;;;;5055256;28;20045;-68
2022/09/30 03:17:41;;;;;;;5.57;2.53;;;7.20;99.90;;;;;;5050298;28;20068;-68
2022/09/30 03:20:15;;;;;;;6.45;2.40;;;7.20;99.90;;;;;;5023663;28;20493;-69
2022/09/30 03:22:59;;;;;;;10.80;3.20;;;7.20;99.90;;;;;;5006059;28;20083;-68
2022/09/30 03:25:43;;;;;;;11.52;3.08;;;7.20;99.90;;;;;;5033272;28;20059;-68
2022/09/30 03:28:26;;;;;;;7.85;3.35;;;7.20;99.90;;;;;;5053637;28;20328;-68
2022/09/30 03:31:20;;;;;;;5.50;2.85;;;7.20;99.90;;;;;;5045107;28;20607;-69
2022/09/30 03:34:00;;;;;;;5.15;2.17;;;7.20;99.90;;;;;;5058726;28;20066;-68
2022/09/30 03:36:38;;;;;;;5.00;2.20;;;7.20;99.90;;;;;;5063561;28;20033;-68
2022/09/30 03:39:19;;;;;;;5.82;2.70;;;7.10;99.90;;;;;;5065194;28;20127;-68
2022/09/30 03:42:16;;;;;;;4.50;2.40;;;7.10;99.90;;;;;;5064280;28;20186;-68
2022/09/30 03:44:59;;;;;;;5.90;2.20;;;7.60;99.90;;;;;;5055473;28;20052;-68
2022/09/30 03:47:26;;;;;;;5.95;2.70;;;7.10;99.90;;;;;;5060662;28;20040;-68
2022/09/30 03:49:58;;;;;;;5.57;2.25;;;7.10;99.90;;;;;;5059746;28;20154;-68
2022/09/30 03:52:26;;;;;;;5.30;2.50;;;7.20;99.90;;;;;;5058231;28;20072;-68
2022/09/30 03:54:58;;;;;;;4.57;2.30;;;7.20;99.90;;;;;;5060049;28;20456;-68
2022/09/30 03:57:29;;;;;;;4.10;2.03;;;7.00;99.90;;;;;;5063126;28;20967;-68
2022/09/30 03:59:56;;;;;;;5.28;2.30;;;7.00;99.90;;;;;;5066533;28;20087;-68
2022/09/30 04:02:22;;;;;;;5.45;2.65;;;7.00;99.90;;;;;;5063194;28;20075;-68
2022/09/30 04:04:48;;;;;;;4.22;2.15;;;7.00;99.90;;;;;;5062002;28;20040;-68
2022/09/30 04:07:14;;;;;;;5.28;2.45;;;7.00;99.90;;;;;;5064942;28;20578;-68
2022/09/30 04:09:40;;;;;;;6.57;2.75;;;7.00;99.90;;;;;;5045385;28;20116;-68
2022/09/30 04:12:06;;;;;;;6.20;2.20;;;6.90;99.90;;;;;;5065350;28;20317;-67
2022/09/30 04:14:33;;;;;;;6.53;2.55;;;6.90;99.90;;;;;;5056533;28;20088;-67
2022/09/30 04:16:59;;;;;;;6.28;2.33;;;6.90;99.90;;;;;;5041900;28;20747;-67
2022/09/30 04:19:25;;;;;;;4.50;2.38;;;6.80;99.90;;;;;;5061361;28;20064;-67
2022/09/30 04:21:52;;;;;;;5.25;2.75;;;6.80;99.90;;;;;;5053017;28;20502;-67
2022/09/30 04:24:19;;;;;;;5.70;2.78;;;6.80;99.90;;;;;;5054054;28;20488;-67
2022/09/30 04:26:45;;;;;;;4.95;2.47;;;7.40;99.90;;;;;;5053785;28;20188;-68
2022/09/30 04:29:11;;;;;;;6.43;2.70;;;7.20;99.90;;;;;;5057474;28;20048;-67
2022/09/30 04:31:36;;;;;;;8.30;3.00;;;6.70;99.90;;;;;;5056758;28;20052;-67
2022/09/30 04:34:02;;;;;;;6.75;3.72;;;6.70;99.90;;;;;;5061938;28;20040;-67
2022/09/30 04:36:28;;;;;;;5.38;2.50;;;6.70;99.90;;;;;;5042243;28;20048;-67
2022/09/30 04:38:54;;;;;;;5.90;2.92;;;6.70;99.90;;;;;;5063269;28;20037;-68
2022/09/30 04:41:19;;;;;;;5.68;2.78;;;6.70;99.90;;;;;;5061521;28;20044;-68
2022/09/30 04:43:47;;;;;;;6.32;3.55;;;6.70;99.90;;;;;;5056772;28;20986;-68
2022/09/30 04:46:14;;;;;;;7.20;3.17;;;6.70;99.90;;;;;;5041243;28;20075;-68
2022/09/30 04:48:44;;;;;;;5.45;2.67;;;6.70;99.90;;;;;;5072262;28;20044;-68
2022/09/30 04:51:19;;;;;;;6.78;3.40;;;6.70;99.90;;;;;;5056566;28;20040;-67
2022/09/30 04:53:45;;;;;;;6.80;3.20;;;6.70;99.90;;;;;;5057063;28;20084;-66
2022/09/30 04:56:11;;;;;;;6.88;3.08;;;6.70;99.90;;;;;;5042216;28;20048;-67
2022/09/30 04:58:37;;;;;;;7.53;3.03;;;6.70;99.90;;;;;;5060961;28;20054;-67
2022/09/30 05:01:06;;;;;;;6.57;3.58;;;6.70;99.90;;;;;;5058014;28;20048;-67
2022/09/30 05:03:33;;;;;;;5.60;3.10;;;6.70;99.90;;;;;;5089329;28;20056;-67
2022/09/30 05:05:58;;;;;;;7.47;3.45;;;6.70;99.90;;;;;;5039430;28;20048;-67
2022/09/30 05:08:24;;;;;;;7.60;3.58;;;6.70;99.90;;;;;;5056403;28;20114;-67
2022/09/30 05:10:58;;;;;;;7.68;2.83;;;6.70;99.90;;;;;;5059542;28;20045;-67
2022/09/30 05:13:35;;;;;;;5.75;3.17;;;6.60;99.90;;;;;;5035001;28;20048;-67
2022/09/30 05:16:01;;;;;;;7.50;4.10;;;6.60;99.90;;;;;;5036752;28;20047;-68
2022/09/30 05:18:28;;;;;;;7.53;3.47;;;6.60;99.90;;;;;;5053065;28;20049;-68
2022/09/30 05:20:58;;;;;;;6.95;3.10;;;6.60;99.90;;;;;;5056431;28;20045;-68
2022/09/30 05:23:25;;;;;;;9.90;4.35;;;6.60;99.90;;;;;;5051517;28;20076;-68
2022/09/30 05:25:51;;;;;;;10.80;3.50;;;6.60;99.90;;;;;;5053184;28;20048;-68
2022/09/30 05:28:17;;;;;;;8.45;3.75;;;6.60;99.90;;;;;;5052125;28;20072;-67
2022/09/30 05:30:44;;;;;;;8.02;3.97;;;6.60;99.90;;;;;;5061770;28;20067;-68
2022/09/30 05:33:11;;;;;;;7.07;3.35;;;6.60;99.90;;;;;;5059637;28;20524;-67
2022/09/30 05:35:42;;;;;;;7.53;3.63;;;6.50;99.90;;;;;;5042309;28;20079;-68
2022/09/30 05:38:09;;;;;;;5.93;3.33;;;6.50;99.90;;;;;;5060268;28;20041;-68
2022/09/30 05:40:38;;;;;;;6.25;3.35;;;6.50;99.90;;;;;;5063142;28;20467;-67
2022/09/30 05:43:07;;;;;;;6.32;3.67;;;6.50;99.90;;;;;;5053888;28;20048;-67
2022/09/30 05:45:33;;;;;;;7.35;3.58;;;6.50;99.90;;;;;;5048099;28;20055;-67
2022/09/30 05:48:00;;;;;;;5.68;3.13;;;7.10;99.90;;;;;;5060326;28;20028;-67
2022/09/30 05:50:26;;;;;;;6.70;3.78;;;6.50;99.90;;;;;;5060654;28;20409;-67
2022/09/30 05:52:51;;;;;;;8.45;3.92;;;6.50;99.90;;;;;;5055780;28;20048;-66
2022/09/30 05:55:21;;;;;;;9.98;3.90;;;6.50;99.90;;;;;;5060219;28;20422;-67
2022/09/30 05:57:48;;;;;;;6.88;3.75;;;6.50;99.90;;;;;;5059746;28;20176;-67
2022/09/30 06:00:14;;;;;;;7.60;3.83;;;6.40;99.90;;;;;;5048702;28;20052;-68
2022/09/30 06:02:40;;;;;;;7.03;3.70;;;6.50;99.90;;;;;;5055817;28;20064;-68
2022/09/30 06:05:10;;;;;;;6.88;3.70;;;6.50;99.90;;;;;;5058984;28;20049;-67
2022/09/30 06:07:37;;;;;;;6.82;3.95;;;6.50;99.90;;;;;;5061902;28;20129;-67
2022/09/30 06:10:11;;;;;;;6.70;3.88;;;6.50;99.90;;;;;;5087278;28;20033;-68
2022/09/30 06:12:37;;;;;;;6.63;3.85;;;6.50;99.90;;;;;;5061532;28;21422;-67
2022/09/30 06:15:07;;;;;;;7.50;3.78;;;6.50;99.90;;;;;;5044632;28;20040;-67
2022/09/30 06:17:33;;;;;;;9.02;4.47;;;6.50;99.90;;;;;;5045934;28;20049;-67
2022/09/30 06:19:59;;;;;;;7.47;4.30;;;6.60;99.90;;;;;;5061580;28;20109;-66
2022/09/30 06:22:25;;;;;;;6.78;3.95;;;6.70;99.90;;;;;;5041442;28;20045;-66
2022/09/30 06:24:51;;;;;;;7.05;4.10;;;6.80;99.90;;;;;;5060245;28;20079;-67
2022/09/30 06:27:18;;;;;;;7.80;3.80;;;7.30;99.90;;;;;;5055041;28;20080;-67
2022/09/30 06:29:43;;;;;;;6.43;3.75;;;6.80;99.90;;;;;;5042642;28;20057;-67
2022/09/30 06:32:09;;;;;;;6.20;3.60;;;7.20;99.90;;;;;;5054252;28;20052;-67
2022/09/30 06:34:35;;;;;;;6.82;4.15;;;6.90;99.90;;;;;;5038545;28;20083;-68
2022/09/30 06:37:01;;;;;;;8.95;3.97;;;7.00;99.90;;;;;;5058277;28;20131;-67
2022/09/30 06:39:27;;;;;;;6.22;3.60;;;7.00;99.90;;;;;;5039210;28;20051;-66
2022/09/30 06:41:55;;;;;;;7.88;4.00;;;7.00;99.90;;;;;;5061546;28;20048;-67
2022/09/30 06:44:20;;;;;;;8.68;3.70;;;7.00;99.90;;;;;;5056538;28;20053;-67
2022/09/30 06:46:46;;;;;;;8.02;3.40;;;7.50;99.90;;;;;;5058686;28;20045;-67
2022/09/30 06:49:12;;;;;;;6.00;3.53;;;7.10;99.90;;;;;;5031628;28;20053;-67
2022/09/30 06:51:37;;;;;;;8.90;4.03;;;7.60;99.90;;;;;;5038431;28;20036;-67
2022/09/30 06:54:03;;;;;;;6.30;3.65;;;7.30;99.90;;;;;;5055474;28;20448;-68
2022/09/30 06:56:30;;;;;;;7.90;4.60;;;7.70;99.90;;;;;;5041154;28;20048;-68
2022/09/30 06:58:56;;;;;;;7.63;4.30;;;7.50;99.90;;;;;;5057592;28;20094;-67
2022/09/30 07:01:23;;;;;;;5.95;3.42;;;7.60;99.90;;;;;;5065508;28;20525;-67
2022/09/30 07:03:55;;;;;;;6.10;3.60;;;8.00;99.90;;;;;;5064283;28;20071;-69
2022/09/30 07:06:21;;;;;;;6.95;3.38;;;8.00;99.90;;;;;;5054637;28;20044;-67
2022/09/30 07:08:46;;;;;;;5.53;2.92;;;8.10;99.90;;;;;;5054328;28;20036;-68
2022/09/30 07:11:15;;;;;;;4.90;2.53;;;8.30;99.90;;;;;;5042511;28;20086;-69
2022/09/30 07:13:45;;;;;;;5.00;2.55;;;8.40;99.90;;;;;;5057649;28;20500;-67
2022/09/30 07:16:16;;;;;;;5.45;2.53;;;8.60;99.90;;;;;;5083808;28;20063;-67
2022/09/30 07:18:43;;;;;;;5.22;2.75;;;8.70;99.90;;;;;;5060206;28;20164;-67
2022/09/30 07:21:12;;;;;;;5.15;2.65;;;8.90;99.90;;;;;;5058417;28;20048;-68
2022/09/30 07:23:44;;;;;;;5.88;2.50;;;9.20;99.90;;;;;;5040921;28;20056;-67
2022/09/30 07:26:10;;;;;;;5.47;2.60;;;9.30;99.90;;;;;;5057990;28;20109;-68
2022/09/30 07:28:38;;;;;;;8.35;2.95;;;9.50;99.90;;;;;;5057855;28;20114;-67
2022/09/30 07:31:11;;;;;;;5.95;2.22;;;9.60;99.90;;;;;;5046089;28;20131;-67
2022/09/30 07:33:38;;;;;;;6.05;2.80;;;9.70;99.90;;;;;;5045149;28;20076;-67
2022/09/30 07:36:07;;;;;;;5.60;2.42;;;9.90;99.90;;;;;;5057318;28;20044;-67
2022/09/30 07:38:35;;;;;;;6.13;2.88;;;9.90;99.90;;;;;;5040830;28;20052;-67
2022/09/30 07:41:14;;;;;;;5.15;2.70;;;10.00;99.90;;;;;;5056255;28;20082;-68
2022/09/30 07:43:43;;;;;;;5.38;2.47;;;10.50;99.90;;;;;;5059402;28;20067;-68
2022/09/30 07:46:19;;;;;;;5.65;2.60;;;10.30;99.90;;;;;;5056395;28;20055;-68
2022/09/30 07:48:48;;;;;;;4.97;2.65;;;10.40;99.90;;;;;;5056843;28;20059;-67
2022/09/30 07:51:21;;;;;;;6.43;2.72;;;10.50;99.90;;;;;;5042003;28;20398;-68
2022/09/30 07:53:50;;;;;;;6.05;3.05;;;10.60;99.90;;;;;;5051198;28;20037;-68
2022/09/30 07:56:17;;;;;;;5.22;2.67;;;10.70;99.90;;;;;;5054834;28;20041;-67
2022/09/30 07:58:44;;;;;;;7.07;2.95;;;10.90;99.90;;;;;;5058693;28;20048;-68
2022/09/30 08:01:10;;;;;;;5.75;3.15;;;11.00;99.90;;;;;;5060468;28;20544;-68
2022/09/30 08:03:38;;;;;;;7.82;3.50;;;11.10;99.90;;;;;;5039605;28;20059;-67
2022/09/30 08:06:09;;;;;;;5.10;2.88;;;11.20;99.90;;;;;;5053385;28;20071;-68
2022/09/30 08:08:36;;;;;;;7.95;3.40;;;11.40;99.90;;;;;;5068973;28;20053;-68
2022/09/30 08:11:03;;;;;;;7.63;3.53;;;11.40;99.90;;;;;;5062441;28;20088;-68
2022/09/30 08:13:29;;;;;;;6.78;3.58;;;11.50;99.90;;;;;;5061873;28;20064;-68
2022/09/30 08:15:54;;;;;;;7.05;4.05;;;11.60;99.90;;;;;;5044256;28;20076;-68
2022/09/30 08:18:20;;;;;;;8.80;4.85;;;11.70;99.90;;;;;;5062161;28;20762;-67
2022/09/30 08:20:46;;;;;;;9.18;5.07;;;11.90;99.90;;;;;;5061387;28;20049;-68
2022/09/30 08:23:13;;;;;;;9.85;4.82;;;12.00;99.90;;;;;;5070815;28;20056;-68
2022/09/30 08:25:39;;;;;;;8.45;4.57;;;12.10;99.90;;;;;;5064764;28;20044;-68
2022/09/30 08:28:05;;;;;;;7.53;4.43;;;12.20;99.90;;;;;;5058709;28;20501;-68
2022/09/30 08:30:33;;;;;;;10.18;5.30;;;12.30;99.90;;;;;;5055054;28;20143;-68
2022/09/30 08:33:02;;;;;;;8.88;4.85;;;12.40;99.90;;;;;;5061333;28;20133;-67
2022/09/30 08:35:28;;;;;;;9.02;4.65;;;12.40;99.90;;;;;;5042514;28;20123;-67
2022/09/30 08:37:54;;;;;;;7.88;4.97;;;12.50;99.90;;;;;;5057489;28;20883;-67
2022/09/30 08:40:30;;;;;;;8.85;4.43;;;12.50;99.90;;;;;;5054996;28;20578;-67
2022/09/30 08:43:15;;;;;;;7.68;4.50;;;12.60;99.90;;;;;;5043972;28;20107;-67
2022/09/30 08:45:59;;;;;;;7.18;4.57;;;12.70;99.90;;;;;;5064223;28;20056;-67
2022/09/30 08:48:39;;;;;;;8.10;5.13;;;12.70;99.90;;;;;;5061952;28;20555;-67
2022/09/30 08:51:47;;;;;;;9.25;5.32;;;12.70;99.90;;;;;;5062770;28;20040;-67
2022/09/30 08:54:16;;;;;;;8.55;4.97;;;12.70;99.90;;;;;;5069872;28;20165;-67
2022/09/30 08:56:44;;;;;;;12.38;5.47;;;12.70;99.90;;;;;;5062711;28;20114;-68
2022/09/30 08:59:32;;;;;;;7.90;5.53;;;12.70;99.90;;;;;;5061734;28;20051;-68
2022/09/30 09:02:11;;;;;;;9.18;5.82;;;12.70;99.90;;;;;;5038718;28;20056;-68
2022/09/30 09:04:37;;;;;;;9.30;6.07;;;12.70;99.90;;;;;;5029290;28;20049;-68
2022/09/30 09:07:37;;;;;;;9.90;6.05;;;12.70;99.90;;;;;;5042793;28;20094;-68
2022/09/30 09:10:23;;;;;;;9.40;5.55;;;12.70;99.90;;;;;;5054951;28;20505;-68
2022/09/30 09:13:06;;;;;;;8.48;5.28;;;12.80;99.90;;;;;;5063583;28;20057;-68
2022/09/30 09:15:46;;;;;;;8.32;5.43;;;12.80;99.90;;;;;;5048214;28;20060;-68
2022/09/30 09:18:45;;;;;;;10.82;4.88;;;12.80;99.90;;;;;;5041689;28;20386;-68
2022/09/30 09:21:40;;;;;;;7.60;4.53;;;12.90;99.90;;;;;;5039604;28;20051;-69
2022/09/30 09:24:17;;;;;;;8.65;4.82;;;12.90;99.90;;;;;;5059349;28;20602;-68
2022/09/30 09:26:42;;;;;;;8.80;5.00;;;13.00;99.90;;;;;;5051536;28;20048;-73
2022/09/30 09:29:42;;;;;;;8.73;5.25;;;13.00;99.90;;;;;;5040951;28;20051;-72
2022/09/30 09:32:16;;;;;;;9.18;5.30;;;13.00;99.90;;;;;;5053695;28;20049;-73
2022/09/30 09:34:43;;;;;;;8.27;5.20;;;13.00;99.90;;;;;;5040150;28;20088;-73
2022/09/30 09:40:56;;;;;;;7.82;5.15;;;13.00;99.90;;;;;;5059008;28;20060;-72
2022/09/30 09:43:33;;;;;;;9.52;5.43;;;13.10;99.90;;;;;;5069889;28;20067;-72
2022/09/30 09:46:17;;;;;;;8.50;5.35;;;13.20;99.90;;;;;;5086471;28;20048;-73
2022/09/30 09:48:43;;;;;;;8.30;5.35;;;13.20;99.90;;;;;;5050603;28;20148;-74
2022/09/30 09:51:31;;;;;;;9.93;5.25;;;13.30;99.90;;;;;;5048526;28;20057;-73
2022/09/30 09:54:00;;;;;;;7.00;4.25;;;13.30;99.90;;;;;;5055974;28;20564;-72
2022/09/30 09:56:29;;;;;;;8.25;4.80;;;13.40;99.90;;;;;;5045308;28;20056;-73
2022/09/30 09:59:15;;;;;;;7.35;4.95;;;13.50;99.90;;;;;;5059672;28;20060;-73
2022/09/30 10:01:44;;;;;;;7.10;4.60;;;13.60;99.90;;;;;;5057770;28;20045;-73
2022/09/30 10:04:18;;;;;;;7.85;5.00;;;13.60;99.90;;;;;;5044000;28;20044;-73
2022/09/30 10:06:58;;;;;;;7.03;4.85;;;13.70;99.90;;;;;;5060240;28;20064;-73
2022/09/30 10:09:32;;;;;;;8.63;5.50;;;13.70;99.90;;;;;;5035265;28;20052;-73
2022/09/30 10:12:07;;;;;;;8.07;5.10;;;13.80;99.90;;;;;;5042451;28;20091;-73
2022/09/30 10:14:45;;;;;;;9.93;5.28;;;13.80;99.90;;;;;;5059393;28;20070;-73
2022/09/30 10:17:20;;;;;;;8.93;6.00;;;13.80;99.90;;;;;;5046306;28;20043;-73
2022/09/30 10:19:57;;;;;;;7.55;5.22;;;13.90;99.90;;;;;;5059006;28;20124;-73
2022/09/30 10:22:29;;;;;;;8.75;5.70;;;14.00;99.90;;;;;;5054053;28;20040;-73
2022/09/30 10:25:13;;;;;;;9.25;6.07;;;14.00;99.90;;;;;;5051572;28;20352;-73
2022/09/30 10:27:52;;;;;;;9.43;5.90;;;14.10;99.90;;;;;;5065822;28;20041;-69
2022/09/30 10:30:42;;;;;;;8.68;5.72;;;14.20;99.90;;;;;;5062071;28;20101;-68
2022/09/30 10:33:27;;;;;;;9.10;5.90;;;14.20;99.90;;;;;;5065307;28;20045;-68
2022/09/30 10:36:01;;;;;;;9.65;6.25;;;14.20;99.90;;;;;;5062656;28;20084;-68
2022/09/30 10:38:30;;;;;;;7.05;4.90;;;14.30;99.90;;;;;;5059690;28;20428;-69
2022/09/30 10:40:57;;;;;;;7.75;4.65;;;14.40;99.90;;;;;;5062618;28;20132;-68
2022/09/30 10:43:36;;;;;;;9.52;4.50;;;14.50;99.90;;;;;;5061171;28;20052;-68
2022/09/30 10:46:03;;;;;;;9.75;4.40;;;14.50;99.90;;;;;;5059041;28;20087;-68
2022/09/30 10:48:34;;;;;;;7.47;3.72;;;14.60;99.90;;;;;;5061645;28;20113;-69
2022/09/30 10:51:00;;;;;;;6.25;4.00;;;14.70;99.90;;;;;;5064937;28;20416;-69
2022/09/30 10:53:31;;;;;;;6.28;3.45;;;14.70;99.90;;;;;;5065396;28;20045;-68
2022/09/30 10:55:56;;;;;;;6.75;3.50;;;14.80;99.90;;;;;;5087313;28;20409;-69
2022/09/30 10:58:22;;;;;;;6.13;2.60;;;14.80;99.90;;;;;;5057917;28;20051;-68
2022/09/30 11:00:55;;;;;;;4.88;2.65;;;14.90;99.90;;;;;;5063032;28;20048;-68
2022/09/30 11:03:29;;;;;;;5.72;2.50;;;14.90;99.90;;;;;;5035298;28;20100;-70
2022/09/30 11:05:57;;;;;;;7.72;2.58;;;15.00;99.90;;;;;;5048029;28;21041;-67
2022/09/30 11:08:43;;;;;;;7.57;2.70;;;15.00;99.90;;;;;;5037332;28;20083;-68
2022/09/30 11:11:41;;;;;;;6.88;2.75;;;15.00;99.90;;;;;;5056711;28;20128;-67
2022/09/30 11:14:10;;;;;;;5.05;2.58;;;15.00;99.90;;;;;;5047000;28;20045;-67
2022/09/30 11:17:07;;;;;;;4.97;2.45;;;14.90;99.90;;;;;;5049110;28;20197;-68
2022/09/30 11:19:40;;;;;;;5.22;2.42;;;14.90;99.90;;;;;;5028537;28;20048;-67
2022/09/30 11:22:12;;;;;;;5.22;2.20;;;15.00;99.90;;;;;;5047896;28;20528;-67
2022/09/30 11:24:44;;;;;;;5.57;2.40;;;15.10;99.90;;;;;;5077103;28;20139;-67
2022/09/30 11:27:46;;;;;;;4.35;2.40;;;15.10;99.90;;;;;;5054472;28;20040;-67
2022/09/30 11:30:19;;;;;;;6.53;2.85;;;15.20;99.90;;;;;;5043660;28;20052;-67
2022/09/30 11:32:54;;;;;;;5.80;2.45;;;15.30;99.90;;;;;;5055156;28;20126;-67
2022/09/30 11:35:55;;;;;;;7.93;2.95;;;15.30;99.90;;;;;;5050808;28;20041;-67
2022/09/30 11:38:48;;;;;;;5.60;2.10;;;15.40;99.90;;;;;;5074385;28;20059;-67
2022/09/30 11:41:18;;;;;;;3.10;1.67;;;15.50;99.90;;;;;;5035456;28;20067;-67
2022/09/30 11:44:17;;;;;;;4.25;1.65;;;15.50;99.90;;;;;;5052161;28;20063;-67
2022/09/30 11:47:01;;;;;;;5.20;2.00;;;15.60;99.90;;;;;;5047988;28;20494;-67
2022/09/30 11:49:58;;;;;;;5.07;2.15;;;15.60;99.90;;;;;;5046513;28;20041;-67
2022/09/30 11:52:23;;;;;;;5.35;2.20;;;15.50;99.90;;;;;;5073066;28;20057;-67
2022/09/30 11:55:01;;;;;;;4.63;2.30;;;15.50;99.90;;;;;;5039845;28;20067;-67
2022/09/30 11:57:36;;;;;;;4.80;1.90;;;15.60;99.90;;;;;;5050672;28;20044;-67
2022/09/30 12:00:13;;;;;;;3.45;1.70;;;15.60;99.90;;;;;;5029711;28;20045;-67
2022/09/30 12:02:49;;;;;;;3.92;2.08;;;15.70;99.90;;;;;;5046232;28;20493;-67
2022/09/30 12:05:38;;;;;;;4.32;1.55;;;15.90;99.90;;;;;;5048756;28;20488;-67
2022/09/30 12:08:37;;;;;;;4.20;2.22;;;15.90;99.90;;;;;;5030877;28;20044;-67
2022/09/30 12:11:36;;;;;;;5.13;1.70;;;15.90;99.90;;;;;;5025189;28;20064;-66
2022/09/30 12:14:13;;;;;;;5.35;1.73;;;15.90;99.90;;;;;;5038518;28;20765;-67
2022/09/30 12:16:39;;;;;;;3.90;1.83;;;15.90;99.90;;;;;;5036045;28;20183;-67
2022/09/30 12:19:14;;;;;;;5.75;1.65;;;15.80;99.90;;;;;;5050115;28;20052;-67
2022/09/30 12:21:49;;;;;;;6.30;1.80;;;15.80;99.90;;;;;;5037811;28;20088;-67
2022/09/30 12:24:36;;;;;;;6.10;1.45;;;15.80;99.90;;;;;;5061317;28;20051;-67
2022/09/30 12:27:04;;;;;;;3.10;1.30;;;15.90;99.90;;;;;;5030454;28;20049;-67
2022/09/30 12:33:04;;;;;;;3.42;1.50;;;16.10;99.90;;;;;;5049712;28;20547;-67
2022/09/30 12:35:45;;;;;;;3.60;1.40;;;16.10;99.90;;;;;;5045010;28;20048;-67
2022/09/30 12:38:29;;;;;;;4.20;1.73;;;16.00;99.90;;;;;;5043518;28;20513;-66
2022/09/30 12:41:32;;;;;;;5.30;1.83;;;15.90;99.90;;;;;;5046750;28;20842;-66
2022/09/30 12:44:39;;;;;;;5.55;1.88;;;15.80;99.90;;;;;;5075547;28;20048;-67
2022/09/30 12:47:35;;;;;;;5.28;2.03;;;15.90;99.90;;;;;;5033873;28;20090;-67
2022/09/30 12:50:06;;;;;;;5.75;1.90;;;15.90;99.90;;;;;;5041349;28;20063;-67
2022/09/30 12:52:35;;;;;;;3.60;2.00;;;15.90;99.90;;;;;;5055734;28;20061;-68
2022/09/30 12:55:18;;;;;;;4.50;1.80;;;15.90;99.90;;;;;;5051038;28;20122;-69
2022/09/30 12:57:46;;;;;;;4.13;1.77;;;15.90;99.90;;;;;;5050614;28;20048;-69
2022/09/30 13:00:29;;;;;;;5.25;1.80;;;15.90;99.90;;;;;;5072283;28;20080;-68
2022/09/30 13:03:02;;;;;;;3.70;1.77;;;16.00;99.90;;;;;;5064964;28;20043;-68
2022/09/30 13:05:42;;;;;;;4.20;1.75;;;16.00;99.90;;;;;;5057166;28;20040;-68
2022/09/30 13:08:24;;;;;;;5.97;2.10;;;16.00;99.90;;;;;;5071718;28;20062;-69
2022/09/30 13:10:59;;;;;;;5.93;2.03;;;16.00;99.90;;;;;;5058027;28;20824;-68
2022/09/30 13:13:27;;;;;;;5.25;1.90;;;15.90;99.90;;;;;;5071091;28;20262;-68
2022/09/30 13:16:01;;;;;;;4.60;1.65;;;15.90;99.90;;;;;;5068588;28;20052;-68
2022/09/30 13:18:28;;;;;;;3.97;1.98;;;16.00;99.90;;;;;;5080505;28;20051;-68
2022/09/30 13:21:09;;;;;;;4.10;1.70;;;16.00;99.90;;;;;;5055034;28;20040;-68
2022/09/30 13:23:43;;;;;;;6.18;2.15;;;15.90;99.90;;;;;;5045444;28;20071;-68
2022/09/30 13:26:22;;;;;;;3.83;1.58;;;15.90;99.90;;;;;;5051827;28;20049;-67
2022/09/30 13:28:51;;;;;;;5.05;2.30;;;15.90;99.90;;;;;;5056108;28;20055;-68
2022/09/30 13:31:22;;;;;;;5.53;1.90;;;16.00;99.90;;;;;;5055688;28;20036;-68
2022/09/30 13:34:00;;;;;;;5.00;2.15;;;15.90;99.90;;;;;;5058607;28;20148;-68
2022/09/30 13:36:50;;;;;;;4.35;1.95;;;15.90;99.90;;;;;;5087338;28;20497;-68